Share

Ponce, PR

Mercedita (TJPS) Elev 30 ft | 18.01 °N, 66.56 °W | Change Station

Current weather conditions updated 38 minutes ago

Partly Cloudy
Partly Cloudy
73 °F
Feels Like 73 °F
N
0
Wind Variable Wind from North
Sunrise 6:05 AM
Sunset 6:44 PM
Moon Waning Gibbous

Today is forecast to be nearly the same temperature as yesterday. Chance of afternoon showers.

Pressure 29.97 in
Visibility 10.0 miles
Clouds Few 3000 ft
Dew Point 66 °F
Humidity 78%
Rainfall 0.00 in
Snow Depth Not available.
UV 0 out of 16
Pollen Not available.
Air Quality Not available.
Flu Activity Local Activity
METAR TJPS 210650Z 00000KT 10SM FEW030 23/19 A2997

More Conditions Fewer Conditions

Pressure 29.97 in
Visibility 10.0 miles
Clouds Few 3000 ft
Dew Point 66 °F
Humidity 78%
Rainfall 0.00 in
Snow Depth Not available.
UV 0 out of 16
Pollen Not available.
Air Quality Not available.
Flu Activity Local Activity
METAR TJPS 210650Z 00000KT 10SM FEW030 23/19 A2997

More Conditions Fewer Conditions

10-Day Weather Forecast

Almanac

Astronomy

Apr. 21, 2014 Rise Set
Actual Time 6:05 AM AST 6:44 PM AST
Civil Twilight 5:43 AM AST 7:06 PM AST
Nautical Twilight 5:17 AM AST 7:33 PM AST
Astronomical Twilight 4:50 AM AST 7:59 PM AST
Moon No Moon Rise 11:39 AM AST
Length of Visible Light 13h 23m
Length of Day
12h 38m
Tomorrow will be 0m 56s longer.
Waning Gibbous, 62% of the Moon is Illuminated
Today
Waning Gibbous
Apr 22
Last Quarter
Apr 29
New
May 6
First Quarter
May 14
Full

Community

  • Snowy Robin
    Snowy Robin
  • Sun Pillar and Geese
    Sun Pillar and Geese
  • Showers on the Way
    Showers on the Way
  • Easter Morning Fog
    Easter Morning Fog
  • Easter Dance
    Easter Dance

WunderPhotos

Upload Photos

1,703,572 photos uploaded!

WunderBlogs® & News

Nearby

Snow Depth

Station Depth Elevation
No new snow has been reported.

Coastal Water Temperatures

Place Temperature
Magueyes Islands, PR 81.0 °F
Yabucoa Harbor, PR 78.1 °F

Earthquake Activity

City Distance Mag. Time & Date
No recent earthquake activity has been reported nearby.
Minimum magnitude displayed is 2.5.

Nearby Weather Stations

Station Location Temp. Heat Index Dew Point Humidity Wind Precip. Elev Updated Type
URB. COSTA SUR, YAUCO, PR 75.4 °F 76 °F 68 °F 77% East  at  0.0 mph 0.00 in / hr 151 ft 3:19 AM AST Normal

Show More Stations Show Fewer Stations

What do you think?

We're not finished. Please let us know what you like, what you don't like, and what you are still missing.